createdAt,value
2019-04-22T00:02:02.408Z,9.00
2019-04-22T00:04:42.096Z,8.90
2019-04-22T00:07:22.982Z,9.00
2019-04-22T00:09:58.321Z,9.00
2019-04-22T00:12:32.786Z,9.10
2019-04-22T00:14:54.239Z,9.10
2019-04-22T00:17:38.844Z,9.10
2019-04-22T00:20:04.960Z,9.10
2019-04-22T00:22:29.167Z,9.00
2019-04-22T00:25:01.131Z,8.90
2019-04-22T00:27:35.628Z,8.70
2019-04-22T00:30:07.264Z,8.60
2019-04-22T00:32:38.262Z,8.40
2019-04-22T00:35:13.302Z,8.30
2019-04-22T00:37:43.825Z,8.30
2019-04-22T00:40:19.762Z,8.30
2019-04-22T00:42:47.217Z,8.40
2019-04-22T00:45:24.351Z,8.40
2019-04-22T00:47:43.387Z,8.30
2019-04-22T00:50:20.318Z,8.10
2019-04-22T00:52:50.922Z,8.00
2019-04-22T00:55:23.041Z,8.10
2019-04-22T00:58:00.111Z,7.90
2019-04-22T01:00:25.090Z,7.80
2019-04-22T01:02:57.070Z,7.80
2019-04-22T01:05:32.471Z,7.60
2019-04-22T01:08:04.391Z,7.70
2019-04-22T01:12:56.763Z,7.90
2019-04-22T01:15:28.909Z,8.00
2019-04-22T01:17:57.775Z,8.00
2019-04-22T01:20:58.927Z,7.90
2019-04-22T01:22:58.587Z,7.90
2019-04-22T01:25:34.869Z,7.90
2019-04-22T01:27:57.168Z,7.90
2019-04-22T01:30:25.888Z,7.90
2019-04-22T01:32:47.298Z,7.90
2019-04-22T01:35:31.026Z,7.80
2019-04-22T01:38:03.192Z,7.60
2019-04-22T01:40:45.526Z,7.30
2019-04-22T01:43:16.785Z,7.20
2019-04-22T01:45:49.871Z,7.10
2019-04-22T01:48:17.744Z,7.00
2019-04-22T01:50:48.532Z,6.90
2019-04-22T01:53:24.543Z,7.00
2019-04-22T01:58:10.872Z,7.00
2019-04-22T02:00:53.762Z,7.00
2019-04-22T02:03:27.842Z,7.10
2019-04-22T02:05:56.707Z,7.20
2019-04-22T02:08:31.393Z,7.30
2019-04-22T02:10:57.641Z,7.30
2019-04-22T02:13:26.891Z,7.10
2019-04-22T02:16:03.533Z,7.00
2019-04-22T02:18:31.795Z,6.90
2019-04-22T02:20:55.336Z,6.90
2019-04-22T02:28:52.412Z,6.70
2019-04-22T02:31:25.611Z,6.50
2019-04-22T02:49:11.679Z,6.30
2019-04-22T02:59:04.198Z,5.90
2019-04-22T03:11:52.540Z,5.80
2019-04-22T03:14:04.745Z,5.90
2019-04-22T03:16:40.595Z,6.00
2019-04-22T03:19:17.767Z,6.00
2019-04-22T03:21:37.591Z,6.10
2019-04-22T03:24:25.573Z,6.10
2019-04-22T03:26:45.792Z,6.00
2019-04-22T03:29:28.737Z,5.90
2019-04-22T03:32:32.684Z,5.80
2019-04-22T03:39:44.835Z,5.90
2019-04-22T03:42:07.849Z,5.90
2019-04-22T03:44:38.866Z,5.90
2019-04-22T03:49:51.907Z,5.80
2019-04-22T03:52:16.287Z,5.80
2019-04-22T03:54:49.902Z,5.70
2019-04-22T03:57:36.924Z,5.70
2019-04-22T04:02:21.389Z,5.60
2019-04-22T04:04:43.577Z,5.60
2019-04-22T04:09:50.000Z,5.60
2019-04-22T04:14:53.978Z,5.50
2019-04-22T04:17:34.787Z,5.50
2019-04-22T04:20:06.198Z,5.50
2019-04-22T04:25:14.760Z,5.60
2019-04-22T04:30:05.513Z,5.60
2019-04-22T04:40:20.676Z,6.00
2019-04-22T04:52:57.689Z,9.70
2019-04-22T04:55:18.500Z,11.10
2019-04-22T04:57:49.111Z,12.40
2019-04-22T05:07:55.400Z,15.70
2019-04-22T05:12:55.737Z,16.80
2019-04-22T05:20:24.225Z,17.80
2019-04-22T05:27:46.372Z,19.10
2019-04-22T05:35:20.729Z,20.40
2019-04-22T05:37:51.300Z,21.10
2019-04-22T05:42:49.452Z,22.30
2019-04-22T05:45:21.628Z,23.00
2019-04-22T05:47:51.908Z,23.60
2019-04-22T05:52:55.413Z,24.70
2019-04-22T05:55:32.380Z,24.90
2019-04-22T05:57:57.751Z,25.30
2019-04-22T06:08:08.250Z,25.30
2019-04-22T06:10:39.255Z,25.50
2019-04-22T06:13:01.011Z,25.20
2019-04-22T06:15:36.312Z,25.20
2019-04-22T06:18:15.982Z,25.70
2019-04-22T06:20:53.748Z,25.30
2019-04-22T06:23:30.723Z,25.30
2019-04-22T06:26:04.900Z,25.50
2019-04-22T06:28:29.078Z,25.10
2019-04-22T06:30:57.351Z,25.00
2019-04-22T06:33:31.557Z,24.70
2019-04-22T06:35:56.443Z,25.00
2019-04-22T06:38:42.649Z,25.10
2019-04-22T06:41:04.526Z,25.10
2019-04-22T06:43:29.594Z,25.40
2019-04-22T06:46:02.157Z,25.70
2019-04-22T06:48:33.105Z,25.70
2019-04-22T06:51:00.113Z,25.30
2019-04-22T06:53:37.287Z,25.10
2019-04-22T06:56:05.130Z,25.30
2019-04-22T06:58:36.655Z,24.90
2019-04-22T07:01:09.491Z,24.40
2019-04-22T07:03:42.761Z,24.00
2019-04-22T07:06:29.626Z,24.10
2019-04-22T07:09:09.364Z,24.00
2019-04-22T07:11:05.767Z,23.90
2019-04-22T07:13:43.483Z,23.90
2019-04-22T07:16:13.340Z,23.90
2019-04-22T07:18:45.208Z,23.50
2019-04-22T07:21:12.613Z,23.00
2019-04-22T07:23:51.360Z,22.50
2019-04-22T07:26:21.957Z,22.50
2019-04-22T07:28:46.707Z,22.60
2019-04-22T07:31:16.248Z,22.80
2019-04-22T07:34:12.870Z,22.70
2019-04-22T07:36:39.733Z,22.80
2019-04-22T07:38:43.841Z,22.40
2019-04-22T07:41:25.941Z,22.00
2019-04-22T07:44:08.978Z,22.10
2019-04-22T07:46:28.670Z,22.40
2019-04-22T07:49:10.867Z,22.60
2019-04-22T07:51:28.120Z,23.10
2019-04-22T07:53:57.358Z,23.70
2019-04-22T07:56:29.274Z,24.20
2019-04-22T07:58:55.838Z,24.40
2019-04-22T08:01:41.832Z,24.30
2019-04-22T08:06:31.339Z,24.10
2019-04-22T08:09:08.032Z,24.00
2019-04-22T08:11:43.806Z,24.00
2019-04-22T08:14:07.581Z,24.10
2019-04-22T08:16:37.080Z,24.20
2019-04-22T08:19:09.110Z,24.40
2019-04-22T08:21:38.461Z,24.60
2019-04-22T08:24:07.955Z,24.60
2019-04-22T08:26:42.130Z,24.50
2019-04-22T08:29:17.987Z,24.80
2019-04-22T08:31:43.648Z,25.20
2019-04-22T08:34:14.210Z,25.30
2019-04-22T08:36:58.912Z,25.40
2019-04-22T08:39:23.151Z,25.60
2019-04-22T08:41:43.514Z,25.40
2019-04-22T08:44:26.135Z,25.30
2019-04-22T08:46:48.593Z,25.40
2019-04-22T08:49:16.036Z,25.70
2019-04-22T08:51:49.073Z,25.30
2019-04-22T08:54:24.492Z,25.30
2019-04-22T08:56:58.259Z,25.50
2019-04-22T08:59:22.216Z,25.50
2019-04-22T09:01:57.430Z,25.60
2019-04-22T09:04:22.824Z,25.80
2019-04-22T09:07:21.219Z,26.00
2019-04-22T09:09:36.179Z,26.00
2019-04-22T09:12:00.001Z,26.30
2019-04-22T09:14:40.515Z,26.20
2019-04-22T09:17:10.176Z,26.30
2019-04-22T09:19:38.767Z,26.40
2019-04-22T09:24:40.795Z,25.70
2019-04-22T09:29:43.219Z,25.40
2019-04-22T09:32:14.266Z,25.40
2019-04-22T09:34:47.318Z,25.00
2019-04-22T09:39:53.392Z,23.80
2019-04-22T09:42:22.003Z,24.00
2019-04-22T09:44:49.169Z,24.20
2019-04-22T09:47:20.555Z,24.70
2019-04-22T09:49:55.258Z,25.40
2019-04-22T09:57:21.787Z,26.00
2019-04-22T09:59:57.757Z,25.50
2019-04-22T10:02:33.921Z,25.20
2019-04-22T10:07:27.024Z,24.70
2019-04-22T10:10:15.062Z,24.50
2019-04-22T10:12:33.815Z,24.80
2019-04-22T10:14:53.937Z,25.30
2019-04-22T10:17:32.445Z,25.40
2019-04-22T10:20:01.072Z,25.60
2019-04-22T10:25:08.264Z,25.70
2019-04-22T10:27:32.460Z,26.00
2019-04-22T10:30:06.062Z,26.40
2019-04-22T10:32:38.137Z,27.00
2019-04-22T10:35:04.956Z,27.30
2019-04-22T10:37:32.166Z,27.00
2019-04-22T10:40:04.774Z,26.50
2019-04-22T10:42:41.009Z,26.60
2019-04-22T10:45:12.372Z,26.60
2019-04-22T10:47:42.387Z,26.90
2019-04-22T10:50:14.440Z,26.80
2019-04-22T10:52:43.941Z,26.30
2019-04-22T10:55:13.838Z,25.80
2019-04-22T10:57:44.406Z,25.00
2019-04-22T11:00:15.623Z,25.10
2019-04-22T11:02:45.687Z,24.90
2019-04-22T11:05:16.711Z,24.90
2019-04-22T11:07:51.859Z,24.80
2019-04-22T11:10:33.528Z,25.30
2019-04-22T11:12:49.309Z,25.50
2019-04-22T11:15:18.811Z,25.50
2019-04-22T11:17:49.594Z,25.60
2019-04-22T11:20:21.793Z,25.70
2019-04-22T11:22:51.212Z,26.30
2019-04-22T11:25:21.675Z,26.50
2019-04-22T11:27:51.443Z,25.90
2019-04-22T11:30:24.056Z,25.40
2019-04-22T11:32:51.986Z,25.60
2019-04-22T11:35:21.827Z,26.10
2019-04-22T11:37:52.444Z,26.30
2019-04-22T11:40:28.778Z,26.00
2019-04-22T11:42:54.381Z,26.10
2019-04-22T11:45:24.028Z,26.10
2019-04-22T11:47:53.509Z,25.90
2019-04-22T11:50:24.227Z,25.80
2019-04-22T11:52:55.009Z,25.40
2019-04-22T11:55:24.738Z,25.40
2019-04-22T11:57:54.137Z,25.50
2019-04-22T12:00:36.817Z,24.90
2019-04-22T12:03:07.294Z,24.80
2019-04-22T12:05:37.608Z,25.30
2019-04-22T12:08:09.262Z,25.80
2019-04-22T12:10:46.865Z,26.30
2019-04-22T12:13:10.306Z,26.90
2019-04-22T12:15:40.821Z,26.80
2019-04-22T12:18:11.199Z,26.60
2019-04-22T12:20:41.462Z,26.70
2019-04-22T12:23:11.133Z,26.90
2019-04-22T12:25:51.713Z,26.80
2019-04-22T12:28:13.192Z,26.20
2019-04-22T12:30:43.521Z,26.20
2019-04-22T12:33:14.917Z,26.00
2019-04-22T12:35:44.405Z,26.30
2019-04-22T12:38:15.254Z,26.50
2019-04-22T12:40:52.507Z,26.70
2019-04-22T12:43:18.595Z,26.90
2019-04-22T12:45:47.953Z,26.90
2019-04-22T12:48:17.426Z,26.80
2019-04-22T12:50:50.044Z,26.60
2019-04-22T12:53:20.546Z,26.20
2019-04-22T12:55:50.184Z,25.90
2019-04-22T12:58:20.053Z,25.90
2019-04-22T13:00:51.444Z,26.10
2019-04-22T13:03:20.510Z,26.20
2019-04-22T13:05:51.412Z,26.10
2019-04-22T13:08:20.991Z,26.00
2019-04-22T13:10:58.419Z,26.00
2019-04-22T13:13:22.929Z,25.90
2019-04-22T13:15:53.092Z,25.60
2019-04-22T13:18:31.882Z,25.40
2019-04-22T13:20:54.628Z,25.60
2019-04-22T13:23:25.438Z,25.80
2019-04-22T13:25:54.934Z,25.90
2019-04-22T13:28:25.185Z,25.80
2019-04-22T13:30:54.813Z,25.60
2019-04-22T13:33:25.033Z,25.30
2019-04-22T13:35:54.455Z,25.30
2019-04-22T13:38:24.995Z,25.60
2019-04-22T13:41:07.285Z,25.60
2019-04-22T13:43:26.746Z,25.40
2019-04-22T13:45:56.516Z,25.40
2019-04-22T13:48:46.889Z,25.20
2019-04-22T13:54:37.135Z,24.70
2019-04-22T13:56:19.345Z,24.20
2019-04-22T13:58:44.800Z,24.00
2019-04-22T14:01:06.938Z,24.10
2019-04-22T14:03:54.641Z,23.90
2019-04-22T14:06:25.044Z,24.20
2019-04-22T14:08:55.689Z,24.60
2019-04-22T14:11:32.361Z,24.80
2019-04-22T14:13:56.724Z,24.70
2019-04-22T14:16:27.022Z,24.60
2019-04-22T14:18:57.997Z,24.50
2019-04-22T14:21:27.543Z,24.30
2019-04-22T14:23:58.401Z,24.00
2019-04-22T14:26:41.347Z,24.00
2019-04-22T14:28:59.976Z,24.00
2019-04-22T14:31:30.769Z,24.00
2019-04-22T14:34:04.970Z,23.80
2019-04-22T14:36:31.187Z,24.00
2019-04-22T14:39:01.924Z,24.00
2019-04-22T14:41:43.532Z,24.00
2019-04-22T14:45:07.201Z,24.10
2019-04-22T14:47:05.559Z,24.20
2019-04-22T14:49:35.469Z,24.30
2019-04-22T14:51:55.065Z,24.10
2019-04-22T14:54:24.205Z,23.90
2019-04-22T14:56:38.276Z,23.80
2019-04-22T14:59:09.185Z,23.90
2019-04-22T15:01:41.419Z,24.00
2019-04-22T15:04:10.902Z,24.10
2019-04-22T15:06:43.110Z,24.20
2019-04-22T15:09:12.230Z,24.30
2019-04-22T15:11:52.808Z,24.10
2019-04-22T15:14:12.680Z,24.00
2019-04-22T15:17:00.799Z,24.10
2019-04-22T15:19:52.019Z,24.00
2019-04-22T15:22:22.752Z,24.00
2019-04-22T15:24:52.399Z,23.90
2019-04-22T15:27:22.584Z,23.70
2019-04-22T15:29:53.570Z,23.50
2019-04-22T15:32:23.356Z,23.60
2019-04-22T15:34:53.399Z,23.60
2019-04-22T15:37:24.256Z,23.40
2019-04-22T15:39:56.307Z,23.20
2019-04-22T15:42:28.845Z,23.10
2019-04-22T15:44:55.961Z,23.10
2019-04-22T15:47:26.926Z,23.00
2019-04-22T15:49:56.359Z,23.00
2019-04-22T15:52:33.413Z,22.90
2019-04-22T15:54:56.723Z,22.90
2019-04-22T15:57:26.646Z,23.00
2019-04-22T16:00:10.648Z,23.10
2019-04-22T16:02:27.806Z,23.00
2019-04-22T16:04:58.768Z,22.90
2019-04-22T16:07:29.614Z,22.90
2019-04-22T16:09:59.633Z,22.80
2019-04-22T16:12:38.858Z,22.80
2019-04-22T16:15:03.077Z,22.80
2019-04-22T16:17:32.675Z,22.70
2019-04-22T16:20:03.529Z,22.50
2019-04-22T16:22:52.040Z,22.40
2019-04-22T16:25:45.107Z,22.40
2019-04-22T16:28:15.457Z,22.40
2019-04-22T16:30:45.534Z,22.40
2019-04-22T16:33:15.242Z,22.30
2019-04-22T16:35:44.997Z,22.20
2019-04-22T16:38:15.081Z,22.20
2019-04-22T16:40:44.983Z,22.20
2019-04-22T16:43:14.444Z,22.10
2019-04-22T16:45:43.780Z,22.10
2019-04-22T16:48:13.692Z,21.90
2019-04-22T16:50:45.026Z,21.90
2019-04-22T16:53:14.280Z,21.80
2019-04-22T16:55:44.682Z,21.70
2019-04-22T16:58:14.872Z,21.50
2019-04-22T17:00:45.195Z,21.40
2019-04-22T17:03:46.818Z,21.30
2019-04-22T17:06:19.420Z,21.10
2019-04-22T17:08:48.944Z,21.00
2019-04-22T17:11:18.296Z,20.90
2019-04-22T17:13:48.117Z,20.80
2019-04-22T17:16:20.068Z,20.60
2019-04-22T17:18:50.053Z,20.50
2019-04-22T17:21:19.747Z,20.40
2019-04-22T17:23:49.874Z,20.20
2019-04-22T17:26:20.611Z,20.20
2019-04-22T17:28:51.321Z,20.10
2019-04-22T17:31:20.752Z,20.00
2019-04-22T17:33:50.816Z,19.80
2019-04-22T17:36:20.333Z,19.80
2019-04-22T17:38:59.933Z,19.70
2019-04-22T17:41:28.561Z,19.60
2019-04-22T17:44:18.967Z,19.40
2019-04-22T17:46:51.365Z,19.30
2019-04-22T17:49:37.404Z,19.20
2019-04-22T17:52:21.216Z,19.00
2019-04-22T17:54:50.444Z,18.90
2019-04-22T17:57:22.533Z,18.80
2019-04-22T17:59:50.594Z,18.60
2019-04-22T18:02:24.202Z,18.50
2019-04-22T18:04:44.984Z,18.40
2019-04-22T18:07:35.613Z,18.30
2019-04-22T18:10:24.325Z,18.30
2019-04-22T18:15:07.134Z,18.00
2019-04-22T18:17:35.166Z,17.90
2019-04-22T18:20:00.335Z,17.70
2019-04-22T18:22:21.867Z,17.60
2019-04-22T18:24:58.382Z,17.50
2019-04-22T18:27:45.715Z,17.40
2019-04-22T18:30:01.947Z,17.30
2019-04-22T18:32:32.645Z,17.10
2019-04-22T18:35:07.334Z,17.00
2019-04-22T18:37:40.297Z,16.90
2019-04-22T18:40:12.011Z,16.90
2019-04-22T18:42:32.759Z,16.80
2019-04-22T18:45:34.448Z,16.70
2019-04-22T18:47:38.734Z,16.60
2019-04-22T18:50:08.589Z,16.50
2019-04-22T18:53:11.019Z,16.40
2019-04-22T18:55:44.571Z,16.30
2019-04-22T18:58:16.832Z,16.30
2019-04-22T19:00:36.218Z,16.20
2019-04-22T19:03:14.168Z,16.10
2019-04-22T19:06:02.606Z,16.00
2019-04-22T19:08:31.664Z,15.90
2019-04-22T19:16:19.624Z,15.70
2019-04-22T19:18:41.822Z,15.60
2019-04-22T19:21:37.997Z,15.60
2019-04-22T19:23:40.681Z,15.40
2019-04-22T19:26:11.906Z,15.40
2019-04-22T19:28:42.380Z,15.30
2019-04-22T19:31:17.266Z,15.20
2019-04-22T19:33:40.538Z,15.10
2019-04-22T19:36:14.950Z,15.00
2019-04-22T19:38:31.273Z,14.90
2019-04-22T19:41:21.301Z,14.80
2019-04-22T19:43:47.278Z,14.80
2019-04-22T19:46:15.180Z,14.70
2019-04-22T19:48:50.022Z,14.70
2019-04-22T19:51:25.142Z,14.50
2019-04-22T19:53:52.417Z,14.50
2019-04-22T19:56:17.538Z,14.40
2019-04-22T19:58:47.699Z,14.30
2019-04-22T20:01:48.560Z,14.30
2019-04-22T20:04:37.776Z,14.20
2019-04-22T20:07:24.829Z,14.10
2019-04-22T20:09:55.350Z,14.00
2019-04-22T20:12:21.332Z,13.90
2019-04-22T20:14:54.506Z,13.80
2019-04-22T20:17:26.648Z,13.90
2019-04-22T20:20:18.176Z,13.90
2019-04-22T20:22:25.978Z,13.80
2019-04-22T20:24:47.146Z,13.70
2019-04-22T20:27:31.710Z,13.70
2019-04-22T20:30:04.600Z,13.60
2019-04-22T20:32:32.669Z,13.50
2019-04-22T20:35:02.985Z,13.50
2019-04-22T20:37:38.556Z,13.40
2019-04-22T20:40:05.486Z,13.40
2019-04-22T20:42:43.716Z,13.20
2019-04-22T20:45:09.591Z,13.10
2019-04-22T20:47:31.962Z,13.10
2019-04-22T20:50:14.362Z,13.10
2019-04-22T20:52:46.873Z,13.00
2019-04-22T20:55:08.200Z,13.00
2019-04-22T20:57:48.002Z,13.00
2019-04-22T21:00:08.980Z,12.90
2019-04-22T21:02:36.274Z,12.90
2019-04-22T21:05:04.277Z,12.80
2019-04-22T21:07:38.719Z,12.80
2019-04-22T21:10:11.432Z,12.70
2019-04-22T21:12:39.686Z,12.70
2019-04-22T21:15:29.867Z,12.70
2019-04-22T21:17:50.944Z,12.60
2019-04-22T21:20:26.121Z,12.60
2019-04-22T21:22:55.218Z,12.60
2019-04-22T21:25:19.599Z,12.50
2019-04-22T21:27:59.808Z,12.50
2019-04-22T21:30:29.165Z,12.50
2019-04-22T21:32:54.824Z,12.50
2019-04-22T21:35:47.469Z,12.50
2019-04-22T21:38:01.877Z,12.40
2019-04-22T21:40:35.566Z,12.40
2019-04-22T21:43:10.694Z,12.30
2019-04-22T21:45:27.817Z,12.30
2019-04-22T21:53:14.575Z,12.20
2019-04-22T21:55:43.538Z,12.10
2019-04-22T21:58:19.519Z,12.10
2019-04-22T22:01:06.424Z,12.10
2019-04-22T22:03:38.439Z,12.10
2019-04-22T22:05:58.846Z,12.10
2019-04-22T22:08:40.230Z,12.00
2019-04-22T22:11:06.487Z,12.00
2019-04-22T22:13:38.707Z,12.00
2019-04-22T22:16:06.627Z,11.90
2019-04-22T22:18:34.995Z,11.90
2019-04-22T22:21:28.253Z,11.90
2019-04-22T22:23:45.650Z,11.90
2019-04-22T22:26:09.399Z,11.80
2019-04-22T22:28:52.185Z,11.80
2019-04-22T22:31:24.765Z,11.70
2019-04-22T22:33:49.670Z,11.60
2019-04-22T22:36:13.679Z,11.40
2019-04-22T22:38:45.645Z,11.40
2019-04-22T22:41:00.143Z,11.20
2019-04-22T22:43:34.968Z,11.20
2019-04-22T22:46:12.346Z,11.20
2019-04-22T22:48:52.033Z,11.10
2019-04-22T22:51:27.433Z,11.10
2019-04-22T22:53:58.134Z,11.00
2019-04-22T22:56:28.859Z,10.90
2019-04-22T22:59:01.863Z,10.90
2019-04-22T23:01:29.936Z,10.90
2019-04-22T23:03:57.080Z,10.90
2019-04-22T23:06:36.975Z,10.80
2019-04-22T23:09:05.701Z,10.80
2019-04-22T23:11:53.762Z,10.80
2019-04-22T23:14:02.448Z,10.70
2019-04-22T23:16:22.230Z,10.80
2019-04-22T23:19:02.741Z,10.70
2019-04-22T23:21:39.738Z,10.70
2019-04-22T23:24:33.180Z,10.70
2019-04-22T23:27:03.134Z,10.70
2019-04-22T23:29:57.484Z,10.70
2019-04-22T23:32:26.944Z,10.70
2019-04-22T23:35:10.441Z,10.70
2019-04-22T23:37:39.403Z,10.80
2019-04-22T23:40:24.382Z,10.80
2019-04-22T23:42:44.638Z,10.80
2019-04-22T23:45:14.019Z,10.80
2019-04-22T23:47:39.082Z,10.80
2019-04-22T23:50:24.344Z,10.70
2019-04-22T23:52:58.858Z,10.70
2019-04-22T23:55:35.419Z,10.70
2019-04-22T23:58:05.087Z,10.60
